createdAt,value
2023-01-04T00:01:19.833Z,21.83
2023-01-04T00:06:22.043Z,24.50
2023-01-04T00:11:24.919Z,23.20
2023-01-04T00:16:28.664Z,23.60
2023-01-04T00:21:31.474Z,23.88
2023-01-04T00:26:35.170Z,22.65
2023-01-04T00:31:37.217Z,22.75
2023-01-04T00:36:39.141Z,20.75
2023-01-04T00:41:58.728Z,20.17
2023-01-04T00:47:03.390Z,23.80
2023-01-04T00:52:05.647Z,26.02
2023-01-04T00:57:08.934Z,20.17
2023-01-04T01:02:10.994Z,25.45
2023-01-04T01:07:13.009Z,25.13
2023-01-04T01:12:15.072Z,25.88
2023-01-04T01:17:16.976Z,21.85
2023-01-04T01:22:19.148Z,24.80
2023-01-04T01:27:21.045Z,31.67
2023-01-04T01:32:23.270Z,24.77
2023-01-04T01:37:25.238Z,22.30
2023-01-04T01:42:27.160Z,31.05
2023-01-04T01:47:43.190Z,21.92
2023-01-04T01:52:45.072Z,23.08
2023-01-04T01:57:50.325Z,23.45
2023-01-04T02:03:27.726Z,24.27
2023-01-04T02:08:30.439Z,25.25
2023-01-04T02:13:54.477Z,23.98
2023-01-04T02:24:18.140Z,26.30
2023-01-04T02:29:29.211Z,23.13
2023-01-04T02:34:58.548Z,25.05
2023-01-04T02:40:04.252Z,25.15
2023-01-04T02:45:07.526Z,23.92
2023-01-04T02:50:33.265Z,23.70
2023-01-04T02:56:06.000Z,36.90
2023-01-04T03:01:43.914Z,22.00
2023-01-04T03:06:57.817Z,28.58
2023-01-04T03:17:27.752Z,29.33
2023-01-04T03:28:15.595Z,28.92
2023-01-04T03:33:36.919Z,31.35
2023-01-04T03:39:05.543Z,34.90
2023-01-04T03:44:44.833Z,33.88
2023-01-04T03:49:57.584Z,35.42
2023-01-04T03:55:02.162Z,35.95
2023-01-04T04:00:14.811Z,31.05
2023-01-04T04:05:43.450Z,41.30
2023-01-04T04:10:45.566Z,58.65
2023-01-04T04:15:48.220Z,52.53
2023-01-04T04:20:57.402Z,52.67
2023-01-04T04:25:59.404Z,44.92
2023-01-04T04:31:01.684Z,43.75
2023-01-04T04:36:04.223Z,43.53
2023-01-04T04:41:26.403Z,38.88
2023-01-04T04:46:28.787Z,42.40
2023-01-04T04:51:30.762Z,48.08
2023-01-04T04:56:32.991Z,47.40
2023-01-04T05:01:35.401Z,43.42
2023-01-04T05:06:37.373Z,48.22
2023-01-04T05:11:57.909Z,54.65
2023-01-04T05:17:00.127Z,54.90
2023-01-04T05:22:02.200Z,55.47
2023-01-04T05:27:04.146Z,54.95
2023-01-04T05:32:06.136Z,53.88
2023-01-04T05:37:08.132Z,74.00
2023-01-04T05:42:25.099Z,53.15
2023-01-04T05:47:27.840Z,63.38
2023-01-04T05:52:29.887Z,59.50
2023-01-04T05:57:32.094Z,66.20
2023-01-04T06:02:34.237Z,61.80
2023-01-04T06:07:36.842Z,59.10
2023-01-04T06:12:39.146Z,51.78
2023-01-04T06:17:41.368Z,56.30
2023-01-04T06:22:43.810Z,54.55
2023-01-04T06:27:45.759Z,56.78
2023-01-04T06:32:47.643Z,54.65
2023-01-04T06:37:49.509Z,52.63
2023-01-04T06:42:51.448Z,64.28
2023-01-04T06:47:53.510Z,59.83
2023-01-04T06:52:55.394Z,65.55
2023-01-04T06:57:59.752Z,53.67
2023-01-04T07:03:13.608Z,63.58
2023-01-04T07:08:17.874Z,63.17
2023-01-04T07:13:19.800Z,62.63
2023-01-04T07:18:22.022Z,69.25
2023-01-04T07:23:24.151Z,61.35
2023-01-04T07:28:46.017Z,60.38
2023-01-04T07:33:50.700Z,73.70
2023-01-04T07:38:52.645Z,58.13
2023-01-04T07:43:54.537Z,58.47
2023-01-04T07:48:56.529Z,61.45
2023-01-04T07:53:59.050Z,65.03
2023-01-04T07:59:00.993Z,73.90
2023-01-04T08:04:03.609Z,67.07
2023-01-04T08:09:06.875Z,68.68
2023-01-04T08:14:09.158Z,67.80
2023-01-04T08:19:19.405Z,66.68
2023-01-04T08:24:21.800Z,55.15
2023-01-04T08:29:23.723Z,57.17
2023-01-04T08:34:25.687Z,62.97
2023-01-04T08:39:29.586Z,72.05
2023-01-04T08:44:34.471Z,62.78
2023-01-04T08:49:36.408Z,58.65
2023-01-04T08:54:38.401Z,57.60
2023-01-04T08:59:40.348Z,53.70
2023-01-04T09:04:42.334Z,51.53
2023-01-04T09:09:44.565Z,59.67
2023-01-04T09:14:46.533Z,48.92
2023-01-04T09:19:48.399Z,44.63
2023-01-04T09:24:50.511Z,53.53
2023-01-04T09:29:52.543Z,45.03
2023-01-04T09:34:56.303Z,46.13
2023-01-04T09:45:25.379Z,44.67
2023-01-04T09:50:46.330Z,36.50
2023-01-04T09:55:52.640Z,42.45
2023-01-04T10:01:05.187Z,45.03
2023-01-04T10:06:12.428Z,38.50
2023-01-04T10:11:14.269Z,37.17
2023-01-04T10:17:12.093Z,38.90
2023-01-04T10:22:15.703Z,38.67
2023-01-04T10:27:50.748Z,36.67
2023-01-04T10:33:00.892Z,39.47
2023-01-04T10:38:10.320Z,43.58
2023-01-04T10:43:20.927Z,41.17
2023-01-04T10:48:33.229Z,35.83
2023-01-04T10:53:50.211Z,38.08
2023-01-04T10:59:15.895Z,36.42
2023-01-04T11:04:23.987Z,31.15
2023-01-04T11:09:42.554Z,35.95
2023-01-04T11:14:49.746Z,31.73
2023-01-04T11:19:52.740Z,31.73
2023-01-04T11:25:33.936Z,32.63
2023-01-04T11:30:32.483Z,34.78
2023-01-04T11:35:42.007Z,36.22
2023-01-04T11:41:06.494Z,44.53
2023-01-04T11:46:17.665Z,35.72
2023-01-04T11:51:29.215Z,30.05
2023-01-04T11:56:36.666Z,38.15
2023-01-04T12:01:42.034Z,33.58
2023-01-04T12:07:09.003Z,40.40
2023-01-04T12:12:15.991Z,35.42
2023-01-04T12:17:21.087Z,34.60
2023-01-04T12:22:37.618Z,32.08
2023-01-04T12:27:47.680Z,35.08
2023-01-04T12:32:49.831Z,29.80
2023-01-04T12:37:51.853Z,32.47
2023-01-04T12:43:26.818Z,34.08
2023-01-04T12:48:47.130Z,61.72
2023-01-04T12:53:49.998Z,40.72
2023-01-04T12:59:25.158Z,30.17
2023-01-04T13:04:40.958Z,28.58
2023-01-04T13:09:54.300Z,50.30
2023-01-04T13:15:04.506Z,39.78
2023-01-04T13:20:22.659Z,30.23
2023-01-04T13:25:25.262Z,30.15
2023-01-04T13:30:34.662Z,49.83
2023-01-04T13:35:37.130Z,31.02
2023-01-04T13:40:49.101Z,25.55
2023-01-04T13:46:28.619Z,30.92
2023-01-04T13:51:37.788Z,43.30
2023-01-04T13:56:40.620Z,32.30
2023-01-04T14:01:49.088Z,49.28
2023-01-04T14:06:54.803Z,34.53
2023-01-04T14:12:08.031Z,45.38
2023-01-04T14:17:10.292Z,28.92
2023-01-04T14:22:41.580Z,32.65
2023-01-04T14:27:43.559Z,49.97
2023-01-04T14:33:14.032Z,35.63
2023-01-04T14:38:19.021Z,33.65
2023-01-04T14:43:35.547Z,30.00
2023-01-04T14:48:37.775Z,38.30
2023-01-04T14:53:39.956Z,41.03
2023-01-04T14:58:41.932Z,65.32
2023-01-04T15:03:43.844Z,45.40
2023-01-04T15:08:45.957Z,45.90
2023-01-04T15:13:48.547Z,53.50
2023-01-04T15:18:50.527Z,68.55
2023-01-04T15:23:52.388Z,56.05
2023-01-04T15:28:54.360Z,67.25
2023-01-04T15:33:56.274Z,50.55
2023-01-04T15:38:58.620Z,54.65
2023-01-04T15:44:00.605Z,52.15
2023-01-04T15:49:02.673Z,78.57
2023-01-04T15:54:04.738Z,54.63
2023-01-04T15:59:06.752Z,65.85
2023-01-04T16:04:11.512Z,57.22
2023-01-04T16:09:13.458Z,68.03
2023-01-04T16:14:15.416Z,71.20
2023-01-04T16:19:17.325Z,61.63
2023-01-04T16:24:45.420Z,47.80
2023-01-04T16:29:41.391Z,45.80
2023-01-04T16:34:43.545Z,42.25
2023-01-04T16:45:08.492Z,30.33
2023-01-04T16:50:12.457Z,32.63
2023-01-04T16:55:16.231Z,37.10
2023-01-04T17:00:22.385Z,28.23
2023-01-04T17:05:24.840Z,65.35
2023-01-04T17:10:29.533Z,36.50
2023-01-04T17:15:47.094Z,26.63
2023-01-04T17:20:54.747Z,41.30
2023-01-04T17:26:01.750Z,31.95
2023-01-04T17:31:09.674Z,25.17
2023-01-04T17:36:13.414Z,27.17
2023-01-04T17:41:26.416Z,24.85
2023-01-04T17:46:34.704Z,31.33
2023-01-04T17:51:37.635Z,27.40
2023-01-04T17:56:39.900Z,25.30
2023-01-04T18:01:41.937Z,22.15
2023-01-04T18:06:43.862Z,22.55
2023-01-04T18:11:45.982Z,23.13
2023-01-04T18:16:57.651Z,17.60
2023-01-04T18:22:00.045Z,20.92
2023-01-04T18:27:20.769Z,22.08
2023-01-04T18:32:26.067Z,23.27
2023-01-04T18:37:28.115Z,18.98
2023-01-04T18:42:31.423Z,20.85
2023-01-04T18:47:33.660Z,45.10
2023-01-04T18:52:37.065Z,21.92
2023-01-04T18:57:39.441Z,36.55
2023-01-04T19:02:41.782Z,24.80
2023-01-04T19:07:43.867Z,23.83
2023-01-04T19:12:46.006Z,23.35
2023-01-04T19:17:47.923Z,23.05
2023-01-04T19:22:49.925Z,27.35
2023-01-04T19:27:51.844Z,18.77
2023-01-04T19:32:55.399Z,19.35
2023-01-04T19:37:58.222Z,18.38
2023-01-04T19:43:00.431Z,18.87
2023-01-04T19:48:02.453Z,37.85
2023-01-04T19:53:04.360Z,23.52
2023-01-04T19:58:07.415Z,23.77
2023-01-04T20:03:09.763Z,23.85
2023-01-04T20:08:22.158Z,33.90
2023-01-04T20:13:24.089Z,22.80
2023-01-04T20:18:26.046Z,20.33
2023-01-04T20:23:29.320Z,21.80
2023-01-04T20:28:31.158Z,19.33
2023-01-04T20:33:33.335Z,25.35
2023-01-04T20:38:40.341Z,19.77
2023-01-04T20:43:43.499Z,22.17
2023-01-04T20:48:46.505Z,20.67
2023-01-04T20:53:48.836Z,28.40
2023-01-04T20:58:52.076Z,37.25
2023-01-04T21:03:54.245Z,21.55
2023-01-04T21:08:56.285Z,20.23
2023-01-04T21:13:58.289Z,18.95
2023-01-04T21:19:00.241Z,19.52
2023-01-04T21:24:02.645Z,16.02
2023-01-04T21:29:04.627Z,21.05
2023-01-04T21:34:12.848Z,17.00
2023-01-04T21:39:15.754Z,18.23
2023-01-04T21:44:18.183Z,24.98
2023-01-04T21:49:20.130Z,17.92
2023-01-04T21:54:21.993Z,18.00
2023-01-04T21:59:24.148Z,17.15
2023-01-04T22:04:26.694Z,15.80
2023-01-04T22:09:28.687Z,13.52
2023-01-04T22:14:32.927Z,14.25
2023-01-04T22:19:34.871Z,11.57
2023-01-04T22:24:38.306Z,13.30
2023-01-04T22:29:40.302Z,10.02
2023-01-04T22:34:42.152Z,10.18
2023-01-04T22:39:44.136Z,11.65
2023-01-04T22:44:46.815Z,10.73
2023-01-04T22:49:49.936Z,13.52
2023-01-04T22:54:51.801Z,14.13
2023-01-04T22:59:54.193Z,9.65
2023-01-04T23:04:56.107Z,9.57
2023-01-04T23:09:58.112Z,9.18
2023-01-04T23:15:00.319Z,8.60
2023-01-04T23:20:06.517Z,10.40
2023-01-04T23:25:11.221Z,7.97
2023-01-04T23:30:13.983Z,9.32
2023-01-04T23:35:16.049Z,8.63
2023-01-04T23:40:18.020Z,11.32
2023-01-04T23:45:20.105Z,8.82
2023-01-04T23:50:22.262Z,11.20
2023-01-04T23:55:24.131Z,11.38
